Time;durP1;ratioP1;P1;durP2;ratioP2;P2;SDS_P1;SDS_P2;PMS_P1;PMS_P2;Temp;Humidity;BMP_temperature;BMP_pressure;BME280_temperature;BME280_humidity;BME280_pressure;Samples;Min_cycle;Max_cycle;Signal;HPM_P1;HPM_P2
2022/12/11 00:01:53;;;;;;;;;;;5.20;99.90;;;;;;5092867;28;19919;-77
2022/12/11 00:04:18;;;;;;;;;;;5.10;99.90;;;;;;5091919;28;19926;-78
2022/12/11 00:06:44;;;;;;;;;;;5.10;99.90;;;;;;5093639;28;19912;-77
2022/12/11 00:09:09;;;;;;;;;;;5.00;99.90;;;;;;5093282;28;19912;-78
2022/12/11 00:11:35;;;;;;;;;;;5.00;99.90;;;;;;5091413;28;19912;-78
2022/12/11 00:14:01;;;;;;;;;;;5.00;99.90;;;;;;5092094;28;19912;-78
2022/12/11 00:16:26;;;;;;;;;;;4.90;99.90;;;;;;5092464;28;20376;-77
2022/12/11 00:18:52;;;;;;;;;;;4.90;99.90;;;;;;5092146;28;19922;-77
2022/12/11 00:21:17;;;;;;;;;;;4.80;99.90;;;;;;5091734;28;19912;-78
2022/12/11 00:23:43;;;;;;;;;;;4.90;99.90;;;;;;5091895;28;20043;-77
2022/12/11 00:26:11;;;;;;;;;;;4.90;99.90;;;;;;5092378;28;20368;-77
2022/12/11 00:28:37;;;;;;;;;;;5.00;99.90;;;;;;5093243;28;19912;-78
2022/12/11 00:31:07;;;;;;;;;;;4.90;99.90;;;;;;5091516;28;19923;-78
2022/12/11 00:33:32;;;;;;;;;;;4.90;99.90;;;;;;5092903;28;19978;-77
2022/12/11 00:35:58;;;;;;;;;;;4.90;99.90;;;;;;5092509;28;19912;-76
2022/12/11 00:38:24;;;;;;;;;;;4.90;99.90;;;;;;5092794;28;20327;-77
2022/12/11 00:40:49;;;;;;;;;;;4.80;99.90;;;;;;5093496;28;19919;-76
2022/12/11 00:43:15;;;;;;;;;;;4.80;99.90;;;;;;5092490;28;20038;-77
2022/12/11 00:45:42;;;;;;;;;;;4.70;99.90;;;;;;5091903;28;19916;-77
2022/12/11 00:48:08;;;;;;;;;;;4.70;99.90;;;;;;5093736;28;19912;-77
2022/12/11 00:50:34;;;;;;;;;;;4.80;99.90;;;;;;5092580;28;20334;-77
2022/12/11 00:53:00;;;;;;;;;;;4.70;99.90;;;;;;5092560;28;19915;-77
2022/12/11 00:55:27;;;;;;;;;;;4.70;99.90;;;;;;5092714;28;20311;-77
2022/12/11 00:57:53;;;;;;;;;;;4.70;99.90;;;;;;5093331;28;19916;-77
2022/12/11 01:00:18;;;;;;;;;;;4.70;99.90;;;;;;5093044;28;20575;-77
2022/12/11 01:02:44;;;;;;;;;;;4.70;99.90;;;;;;5094004;28;20007;-76
2022/12/11 01:05:10;;;;;;;;;;;4.60;99.90;;;;;;5093020;28;19957;-77
2022/12/11 01:07:35;;;;;;;;;;;4.60;99.90;;;;;;5090040;28;19916;-77
2022/12/11 01:12:45;;;;;;;;;;;4.60;99.90;;;;;;5091110;28;19998;-77
2022/12/11 01:15:10;;;;;;;;;;;4.50;99.90;;;;;;5090640;28;19909;-77
2022/12/11 01:17:36;;;;;;;;;;;4.40;99.90;;;;;;5089316;28;19919;-77
2022/12/11 01:20:03;;;;;;;;;;;4.50;99.90;;;;;;5089272;28;19908;-77
2022/12/11 01:22:28;;;;;;;;;;;4.50;99.90;;;;;;5089309;28;20003;-78
2022/12/11 01:24:54;;;;;;;;;;;4.40;99.90;;;;;;5089591;28;20002;-78
2022/12/11 01:27:19;;;;;;;;;;;4.30;99.90;;;;;;5088863;28;19908;-77
2022/12/11 01:29:45;;;;;;;;;;;4.40;99.90;;;;;;5090499;28;19909;-77
2022/12/11 01:32:10;;;;;;;;;;;4.30;99.90;;;;;;5089498;28;19943;-77
2022/12/11 01:34:36;;;;;;;;;;;4.40;99.90;;;;;;5088987;28;20272;-77
2022/12/11 01:37:01;;;;;;;;;;;4.30;99.90;;;;;;5089427;28;20265;-78
2022/12/11 01:39:27;;;;;;;;;;;4.40;99.90;;;;;;5088907;28;20532;-77
2022/12/11 01:41:56;;;;;;;;;;;4.30;99.90;;;;;;5089649;28;20300;-78
2022/12/11 01:44:22;;;;;;;;;;;4.30;99.90;;;;;;5089584;28;19920;-77
2022/12/11 01:46:47;;;;;;;;;;;4.20;99.90;;;;;;5089300;28;20453;-78
2022/12/11 01:49:14;;;;;;;;;;;4.10;99.90;;;;;;5089649;28;19937;-77
2022/12/11 01:52:01;;;;;;;;;;;4.00;99.90;;;;;;5088667;28;19908;-77
2022/12/11 01:54:27;;;;;;;;;;;4.00;99.90;;;;;;5088361;28;20389;-77
2022/12/11 01:56:54;;;;;;;;;;;4.00;99.90;;;;;;5090568;28;19916;-78
2022/12/11 01:59:21;;;;;;;;;;;3.90;99.90;;;;;;5090434;28;19946;-77
2022/12/11 02:01:57;;;;;;;;;;;3.90;99.90;;;;;;5090415;28;20011;-77
2022/12/11 02:04:23;;;;;;;;;;;3.90;99.90;;;;;;5090667;28;19924;-77
2022/12/11 02:06:50;;;;;;;;;;;3.80;99.90;;;;;;5090398;28;20011;-78
2022/12/11 02:09:18;;;;;;;;;;;3.70;99.90;;;;;;5089122;28;20379;-77
2022/12/11 02:11:54;;;;;;;;;;;3.80;99.90;;;;;;5089033;28;20741;-77
2022/12/11 02:14:43;;;;;;;;;;;3.80;99.90;;;;;;5089809;28;19912;-77
2022/12/11 02:17:20;;;;;;;;;;;3.80;99.90;;;;;;5090526;28;19912;-77
2022/12/11 02:19:46;;;;;;;;;;;3.90;99.90;;;;;;5089527;28;19912;-77
2022/12/11 02:22:21;;;;;;;;;;;3.90;99.90;;;;;;5090193;28;19912;-78
2022/12/11 02:25:07;;;;;;;;;;;3.90;99.90;;;;;;5089395;28;19965;-78
2022/12/11 02:27:47;;;;;;;;;;;3.90;99.90;;;;;;5088032;28;20361;-78
2022/12/11 02:30:14;;;;;;;;;;;4.00;99.90;;;;;;5088943;28;19936;-78
2022/12/11 02:32:43;;;;;;;;;;;4.10;99.90;;;;;;5088392;28;19918;-78
2022/12/11 02:35:20;;;;;;;;;;;4.00;99.90;;;;;;5088465;28;20350;-77
2022/12/11 02:37:47;;;;;;;;;;;3.90;99.90;;;;;;5088919;28;19915;-78
2022/12/11 02:40:15;;;;;;;;;;;4.00;99.90;;;;;;5088790;28;19950;-77
2022/12/11 02:42:42;;;;;;;;;;;3.90;99.90;;;;;;5088060;28;19912;-78
2022/12/11 02:45:08;;;;;;;;;;;3.90;99.90;;;;;;5087976;28;19959;-77
2022/12/11 02:47:34;;;;;;;;;;;3.90;99.90;;;;;;5087817;28;19912;-75
2022/12/11 02:50:01;;;;;;;;;;;3.80;99.90;;;;;;5088524;28;20380;-75
2022/12/11 02:52:28;;;;;;;;;;;3.80;99.90;;;;;;5089178;28;19920;-76
2022/12/11 02:54:54;;;;;;;;;;;3.80;99.90;;;;;;5087942;28;19954;-75
2022/12/11 02:57:34;;;;;;;;;;;3.70;99.90;;;;;;5086846;28;19912;-75
2022/12/11 02:59:59;;;;;;;;;;;3.70;99.90;;;;;;5087907;28;19962;-75
2022/12/11 03:02:25;;;;;;;;;;;3.70;99.90;;;;;;5091798;28;20352;-75
2022/12/11 03:04:50;;;;;;;;;;;3.70;99.90;;;;;;5091181;28;20316;-75
2022/12/11 03:07:28;;;;;;;;;;;3.60;99.90;;;;;;5091817;28;19908;-74
2022/12/11 03:09:53;;;;;;;;;;;3.50;99.90;;;;;;5093435;28;19920;-76
2022/12/11 03:12:21;;;;;;;;;;;3.50;99.90;;;;;;5092662;28;19908;-76
2022/12/11 03:14:47;;;;;;;;;;;3.50;99.90;;;;;;5091784;28;19912;-76
2022/12/11 03:17:15;;;;;;;;;;;3.40;99.90;;;;;;5093167;28;19912;-75
2022/12/11 03:19:44;;;;;;;;;;;3.40;99.90;;;;;;5092088;28;19916;-76
2022/12/11 03:22:36;;;;;;;;;;;3.30;99.90;;;;;;5093815;28;19912;-75
2022/12/11 03:25:05;;;;;;;;;;;3.30;99.90;;;;;;5088029;28;19942;-75
2022/12/11 03:27:43;;;;;;;;;;;3.40;99.90;;;;;;5092072;28;20334;-76
2022/12/11 03:30:11;;;;;;;;;;;3.20;99.90;;;;;;5089949;28;19972;-75
2022/12/11 03:32:39;;;;;;;;;;;3.20;99.90;;;;;;5090567;28;20253;-75
2022/12/11 03:35:12;;;;;;;;;;;3.20;99.90;;;;;;5091243;28;19908;-76
2022/12/11 03:37:39;;;;;;;;;;;3.10;99.90;;;;;;5089802;28;20347;-75
2022/12/11 03:40:10;;;;;;;;;;;3.10;99.90;;;;;;5091273;28;20404;-75
2022/12/11 03:42:37;;;;;;;;;;;3.00;99.90;;;;;;5086744;28;19912;-76
2022/12/11 03:45:03;;;;;;;;;;;3.00;99.90;;;;;;5089083;28;19924;-76
2022/12/11 03:47:31;;;;;;;;;;;3.10;99.90;;;;;;5089714;28;20288;-75
2022/12/11 03:49:57;;;;;;;;;;;3.10;99.90;;;;;;5089251;28;20387;-75
2022/12/11 03:52:26;;;;;;;;;;;3.10;99.90;;;;;;5089101;28;20364;-76
2022/12/11 03:54:53;;;;;;;;;;;3.10;99.90;;;;;;5089258;28;20288;-77
2022/12/11 03:57:21;;;;;;;;;;;3.10;99.90;;;;;;5088743;28;19918;-76
2022/12/11 03:59:47;;;;;;;;;;;3.00;99.90;;;;;;5088621;28;19931;-75
2022/12/11 04:02:12;;;;;;;;;;;2.90;99.90;;;;;;5088011;28;19923;-76
2022/12/11 04:04:39;;;;;;;;;;;2.90;99.90;;;;;;5087676;28;19916;-76
2022/12/11 04:07:04;;;;;;;;;;;3.00;99.90;;;;;;5087595;28;19919;-76
2022/12/11 04:09:30;;;;;;;;;;;2.90;99.90;;;;;;5088549;28;20673;-76
2022/12/11 04:11:55;;;;;;;;;;;2.90;99.90;;;;;;5088416;28;20320;-76
2022/12/11 04:17:05;;;;;;;;;;;2.90;99.90;;;;;;5089765;28;20441;-76
2022/12/11 04:25:00;;;;;;;;;;;3.10;99.90;;;;;;5089292;28;19923;-76
2022/12/11 04:28:11;;;;;;;;;;;3.00;99.90;;;;;;5089089;28;19912;-76
2022/12/11 04:30:13;;;;;;;;;;;3.10;99.90;;;;;;5088440;28;19919;-76
2022/12/11 04:32:38;;;;;;;;;;;3.00;99.90;;;;;;5088151;28;20007;-76
2022/12/11 04:35:05;;;;;;;;;;;3.10;99.90;;;;;;5089080;28;19998;-76
2022/12/11 04:37:30;;;;;;;;;;;3.00;99.90;;;;;;5089060;28;19919;-76
2022/12/11 04:39:56;;;;;;;;;;;2.90;99.90;;;;;;5090125;28;19916;-75
2022/12/11 04:42:21;;;;;;;;;;;2.90;99.90;;;;;;5088625;28;19923;-77
2022/12/11 04:44:47;;;;;;;;;;;3.00;99.90;;;;;;5089737;28;19927;-75
2022/12/11 04:47:13;;;;;;;;;;;2.90;99.90;;;;;;5089586;28;19916;-75
2022/12/11 04:49:38;;;;;;;;;;;2.90;99.90;;;;;;5089640;28;19947;-76
2022/12/11 04:52:04;;;;;;;;;;;3.10;99.90;;;;;;5088693;28;20376;-76
2022/12/11 04:54:30;;;;;;;;;;;3.00;99.90;;;;;;5088948;28;20399;-76
2022/12/11 04:56:55;;;;;;;;;;;3.00;99.90;;;;;;5089437;28;19912;-76
2022/12/11 04:59:21;;;;;;;;;;;3.00;99.90;;;;;;5017811;28;1981226;-76
2022/12/11 05:01:47;;;;;;;;;;;3.00;99.90;;;;;;5090146;28;19912;-76
2022/12/11 05:04:13;;;;;;;;;;;3.00;99.90;;;;;;5088687;28;20006;-76
2022/12/11 05:06:38;;;;;;;;;;;2.90;99.90;;;;;;5089748;28;19912;-76
2022/12/11 05:09:04;;;;;;;;;;;2.80;99.90;;;;;;5090022;28;19912;-76
2022/12/11 05:11:29;;;;;;;;;;;2.90;99.90;;;;;;5088070;28;20358;-76
2022/12/11 05:13:55;;;;;;;;;;;2.80;99.90;;;;;;5089027;28;20368;-75
2022/12/11 05:16:20;;;;;;;;;;;2.80;99.90;;;;;;5089413;28;20311;-75
2022/12/11 05:18:49;;;;;;;;;;;2.80;99.90;;;;;;5087949;28;19912;-75
2022/12/11 05:21:14;;;;;;;;;;;2.80;99.90;;;;;;5089908;28;19916;-76
2022/12/11 05:23:40;;;;;;;;;;;2.80;99.90;;;;;;5087637;28;19916;-75
2022/12/11 05:26:08;;;;;;;;;;;2.80;99.90;;;;;;5088059;28;19912;-75
2022/12/11 05:28:35;;;;;;;;;;;2.80;99.90;;;;;;5088320;28;19916;-76
2022/12/11 05:31:02;;;;;;;;;;;2.80;99.90;;;;;;5088446;28;19919;-75
2022/12/11 05:33:28;;;;;;;;;;;2.80;99.90;;;;;;5089408;28;19912;-76
2022/12/11 05:35:54;;;;;;;;;;;2.90;99.90;;;;;;5088354;28;19912;-75
2022/12/11 05:38:19;;;;;;;;;;;2.90;99.90;;;;;;5088436;28;20022;-77
2022/12/11 05:40:53;;;;;;;;;;;2.80;99.90;;;;;;5088088;28;19912;-78
2022/12/11 05:43:19;;;;;;;;;;;2.80;99.90;;;;;;5089779;28;19962;-76
2022/12/11 05:45:45;;;;;;;;;;;2.80;99.90;;;;;;5089412;28;19952;-75
2022/12/11 05:48:10;;;;;;;;;;;2.80;99.90;;;;;;5089050;28;20014;-76
2022/12/11 05:50:36;;;;;;;;;;;2.80;99.90;;;;;;5087717;28;20333;-76
2022/12/11 05:53:03;;;;;;;;;;;2.80;99.90;;;;;;5088871;28;20377;-75
2022/12/11 05:55:29;;;;;;;;;;;2.80;99.90;;;;;;5089583;28;19916;-76
2022/12/11 05:57:54;;;;;;;;;;;2.80;99.90;;;;;;5091113;28;20371;-76
2022/12/11 06:00:20;;;;;;;;;;;2.70;99.90;;;;;;5087761;28;19930;-75
2022/12/11 06:02:46;;;;;;;;;;;2.80;99.90;;;;;;5088133;28;19912;-75
2022/12/11 06:05:11;;;;;;;;;;;2.90;99.90;;;;;;5088100;28;20385;-76
2022/12/11 06:07:37;;;;;;;;;;;2.90;99.90;;;;;;5087945;28;19927;-75
2022/12/11 06:10:02;;;;;;;;;;;2.90;99.90;;;;;;5086194;28;19977;-75
2022/12/11 06:12:28;;;;;;;;;;;2.90;99.90;;;;;;5086468;28;19912;-76
2022/12/11 06:14:54;;;;;;;;;;;2.80;99.90;;;;;;5087927;28;19915;-75
2022/12/11 06:17:20;;;;;;;;;;;2.80;99.90;;;;;;5087462;28;19966;-76
2022/12/11 06:19:45;;;;;;;;;;;2.90;99.90;;;;;;5088614;28;19912;-76
2022/12/11 06:22:11;;;;;;;;;;;2.90;99.90;;;;;;5087741;28;19912;-76
2022/12/11 06:24:36;;;;;;;;;;;3.00;99.90;;;;;;5087678;28;19920;-76
2022/12/11 06:27:02;;;;;;;;;;;3.00;99.90;;;;;;5087736;28;20006;-76
2022/12/11 06:29:27;;;;;;;;;;;3.00;99.90;;;;;;5088431;28;20024;-76
2022/12/11 06:31:53;;;;;;;;;;;3.00;99.90;;;;;;5086778;28;19912;-76
2022/12/11 06:34:18;;;;;;;;;;;3.00;99.90;;;;;;5087742;28;19921;-76
2022/12/11 06:36:44;;;;;;;;;;;3.00;99.90;;;;;;5087976;28;19908;-76
2022/12/11 06:39:09;;;;;;;;;;;3.00;99.90;;;;;;5087274;28;19922;-76
2022/12/11 06:41:35;;;;;;;;;;;3.00;99.90;;;;;;5086567;28;19934;-76
2022/12/11 06:44:00;;;;;;;;;;;2.90;99.90;;;;;;5089035;28;19927;-77
2022/12/11 06:46:26;;;;;;;;;;;2.90;99.90;;;;;;5088413;28;19956;-76
2022/12/11 06:48:52;;;;;;;;;;;2.90;99.90;;;;;;5087721;28;19924;-76
2022/12/11 06:51:20;;;;;;;;;;;2.90;99.90;;;;;;5087526;28;19943;-76
2022/12/11 06:53:50;;;;;;;;;;;2.90;99.90;;;;;;5087779;28;19947;-76
2022/12/11 06:56:15;;;;;;;;;;;2.90;99.90;;;;;;5087496;28;20006;-76
2022/12/11 06:58:42;;;;;;;;;;;3.00;99.90;;;;;;5089207;28;20003;-76
2022/12/11 07:01:21;;;;;;;;;;;3.00;99.90;;;;;;5089694;28;19924;-76
2022/12/11 07:03:47;;;;;;;;;;;3.00;99.90;;;;;;5088904;28;20464;-76
2022/12/11 07:06:13;;;;;;;;;;;3.00;99.90;;;;;;5089209;28;19991;-76
2022/12/11 07:08:38;;;;;;;;;;;3.10;99.90;;;;;;5087861;28;19934;-76
2022/12/11 07:11:05;;;;;;;;;;;3.10;99.90;;;;;;5088634;28;19912;-76
2022/12/11 07:13:31;;;;;;;;;;;3.10;99.90;;;;;;5087519;28;19912;-76
2022/12/11 07:15:57;;;;;;;;;;;3.10;99.90;;;;;;5087509;28;19961;-76
2022/12/11 07:18:22;;;;;;;;;;;3.10;99.90;;;;;;5089113;28;19964;-75
2022/12/11 07:20:48;;;;;;;;;;;3.00;99.90;;;;;;5088992;28;20253;-76
2022/12/11 07:23:13;;;;;;;;;;;3.00;99.90;;;;;;5087605;28;19974;-75
2022/12/11 07:25:39;;;;;;;;;;;3.00;99.90;;;;;;5088560;28;20387;-76
2022/12/11 07:28:04;;;;;;;;;;;3.00;99.90;;;;;;5089258;28;19951;-77
2022/12/11 07:30:30;;;;;;;;;;;3.00;99.90;;;;;;5088629;28;19965;-76
2022/12/11 07:32:55;;;;;;;;;;;3.00;99.90;;;;;;5089922;28;20062;-75
2022/12/11 07:35:21;;;;;;;;;;;3.10;99.90;;;;;;5089248;28;19912;-76
2022/12/11 07:37:46;;;;;;;;;;;3.00;99.90;;;;;;5089740;28;19938;-76
2022/12/11 07:40:12;;;;;;;;;;;3.00;99.90;;;;;;5088603;28;19915;-76
2022/12/11 07:42:38;;;;;;;;;;;3.00;99.90;;;;;;5089491;28;19912;-76
2022/12/11 07:45:04;;;;;;;;;;;3.00;99.90;;;;;;5088261;28;20281;-76
2022/12/11 07:47:29;;;;;;;;;;;3.10;99.90;;;;;;5092117;28;19958;-76
2022/12/11 07:49:55;;;;;;;;;;;3.10;99.90;;;;;;5092568;28;20013;-76
2022/12/11 07:52:20;;;;;;;;;;;3.10;99.90;;;;;;5093231;28;20001;-76
2022/12/11 07:54:46;;;;;;;;;;;3.20;99.90;;;;;;5092097;28;19912;-76
2022/12/11 07:57:11;;;;;;;;;;;3.10;99.90;;;;;;5092811;28;19908;-76
2022/12/11 07:59:37;;;;;;;;;;;3.10;99.90;;;;;;5092482;28;20395;-76
2022/12/11 08:02:02;;;;;;;;;;;3.10;99.90;;;;;;5093318;28;19912;-77
2022/12/11 08:04:28;;;;;;;;;;;3.10;99.90;;;;;;5093305;28;19916;-77
2022/12/11 08:06:53;;;;;;;;;;;3.10;99.90;;;;;;5093077;28;20618;-76
2022/12/11 08:09:21;;;;;;;;;;;3.10;99.90;;;;;;5090955;28;19908;-75
2022/12/11 08:11:47;;;;;;;;;;;3.20;99.90;;;;;;5093118;28;19908;-76
2022/12/11 08:14:13;;;;;;;;;;;3.20;99.90;;;;;;5092739;28;20044;-76
2022/12/11 08:16:41;;;;;;;;;;;3.20;99.90;;;;;;5094447;28;19920;-76
2022/12/11 08:19:07;;;;;;;;;;;3.30;99.90;;;;;;5094503;28;19912;-76
2022/12/11 08:21:33;;;;;;;;;;;3.20;99.90;;;;;;5095389;28;20285;-76
2022/12/11 08:23:58;;;;;;;;;;;3.20;99.90;;;;;;5094116;28;19916;-76
2022/12/11 08:26:26;;;;;;;;;;;3.30;99.90;;;;;;5093354;28;19912;-76
2022/12/11 08:28:51;;;;;;;;;;;3.30;99.90;;;;;;5089977;28;19973;-76
2022/12/11 08:31:17;;;;;;;;;;;3.30;99.90;;;;;;5089540;28;19912;-75
2022/12/11 08:33:43;;;;;;;;;;;3.40;99.90;;;;;;5091713;28;20533;-76
2022/12/11 08:36:10;;;;;;;;;;;3.50;99.90;;;;;;5091223;28;19923;-76
2022/12/11 08:38:36;;;;;;;;;;;3.50;99.90;;;;;;5090112;28;19908;-75
2022/12/11 08:41:11;;;;;;;;;;;3.50;99.90;;;;;;5091344;28;19912;-75
2022/12/11 08:43:37;;;;;;;;;;;3.60;99.90;;;;;;5092129;28;19912;-76
2022/12/11 08:46:03;;;;;;;;;;;3.60;99.90;;;;;;5092432;28;19920;-76
2022/12/11 08:48:29;;;;;;;;;;;3.70;99.90;;;;;;5091566;28;20268;-76
2022/12/11 08:50:57;;;;;;;;;;;3.60;99.90;;;;;;5089898;28;19912;-76
2022/12/11 08:53:23;;;;;;;;;;;3.60;99.90;;;;;;5090021;28;20479;-76
2022/12/11 08:55:48;;;;;;;;;;;3.60;99.90;;;;;;5091226;28;19919;-76
2022/12/11 08:58:14;;;;;;;;;;;3.60;99.90;;;;;;5089392;28;19912;-76
2022/12/11 09:00:39;;;;;;;;;;;3.70;99.90;;;;;;5090497;28;20319;-75
2022/12/11 09:03:05;;;;;;;;;;;3.70;99.90;;;;;;5089367;28;19915;-76
2022/12/11 09:05:31;;;;;;;;;;;3.70;99.90;;;;;;5089455;28;19916;-76
2022/12/11 09:07:57;;;;;;;;;;;3.80;99.90;;;;;;5089193;28;19952;-76
2022/12/11 09:10:22;;;;;;;;;;;3.80;99.90;;;;;;5090770;28;19915;-76
2022/12/11 09:12:48;;;;;;;;;;;3.80;99.90;;;;;;5091105;28;19908;-76
2022/12/11 09:15:13;;;;;;;;;;;3.80;99.90;;;;;;5089872;28;19922;-77
2022/12/11 09:17:42;;;;;;;;;;;3.80;99.90;;;;;;5088926;28;19955;-76
2022/12/11 09:20:08;;;;;;;;;;;3.80;99.90;;;;;;5090137;28;19962;-76
2022/12/11 09:22:33;;;;;;;;;;;3.70;99.90;;;;;;5091911;28;19912;-76
2022/12/11 09:24:59;;;;;;;;;;;3.70;99.90;;;;;;5090889;28;19965;-77
2022/12/11 09:27:24;;;;;;;;;;;3.70;99.90;;;;;;5090469;28;19912;-75
2022/12/11 09:29:50;;;;;;;;;;;3.70;99.90;;;;;;5089898;28;19908;-77
2022/12/11 09:32:16;;;;;;;;;;;3.70;99.90;;;;;;5089846;28;19919;-75
2022/12/11 09:34:41;;;;;;;;;;;3.70;99.90;;;;;;5088945;28;19973;-76
2022/12/11 09:37:07;;;;;;;;;;;3.70;99.90;;;;;;5089846;28;19919;-75
2022/12/11 09:39:32;;;;;;;;;;;3.80;99.90;;;;;;5090055;28;20376;-77
2022/12/11 09:42:16;;;;;;;;;;;3.80;99.90;;;;;;5090761;28;19995;-79
2022/12/11 09:44:45;;;;;;;;;;;3.80;99.90;;;;;;5091119;28;19916;-76
2022/12/11 09:47:15;;;;;;;;;;;3.80;99.90;;;;;;5090825;28;19908;-77
2022/12/11 09:49:42;;;;;;;;;;;3.80;99.90;;;;;;5090994;28;19919;-75
2022/12/11 09:52:10;;;;;;;;;;;3.90;99.90;;;;;;5090909;28;20392;-76
2022/12/11 09:54:37;;;;;;;;;;;4.00;99.90;;;;;;5089819;28;19912;-76
2022/12/11 09:57:09;;;;;;;;;;;3.90;99.90;;;;;;5090721;28;19920;-77
2022/12/11 09:59:40;;;;;;;;;;;4.00;99.90;;;;;;5089161;28;20010;-76
2022/12/11 10:02:18;;;;;;;;;;;4.00;99.90;;;;;;5091017;28;19912;-77
2022/12/11 10:04:56;;;;;;;;;;;4.10;99.90;;;;;;5090203;28;19967;-77
2022/12/11 10:07:28;;;;;;;;;;;4.10;99.90;;;;;;5088853;28;19912;-77
2022/12/11 10:09:56;;;;;;;;;;;4.20;99.90;;;;;;5089884;28;19916;-76
2022/12/11 10:12:21;;;;;;;;;;;4.30;99.90;;;;;;5089131;28;20003;-76
2022/12/11 10:15:02;;;;;;;;;;;4.30;99.90;;;;;;5088595;28;20010;-75
2022/12/11 10:17:29;;;;;;;;;;;4.40;99.90;;;;;;5090090;28;19912;-76
2022/12/11 10:20:03;;;;;;;;;;;4.60;99.90;;;;;;5088830;28;20284;-76
2022/12/11 10:22:30;;;;;;;;;;;4.50;99.90;;;;;;5087685;28;19953;-77
2022/12/11 10:24:57;;;;;;;;;;;4.50;99.90;;;;;;5090566;28;20326;-76
2022/12/11 10:27:26;;;;;;;;;;;4.50;99.90;;;;;;5090144;28;19908;-77
2022/12/11 10:29:58;;;;;;;;;;;4.50;99.90;;;;;;5089633;28;19908;-76
2022/12/11 10:32:28;;;;;;;;;;;4.70;99.90;;;;;;5090075;28;20643;-76
2022/12/11 10:34:58;;;;;;;;;;;4.50;99.90;;;;;;5089067;28;19916;-76
2022/12/11 10:37:24;;;;;;;;;;;4.50;99.90;;;;;;5090135;28;19916;-76
2022/12/11 10:39:49;;;;;;;;;;;4.50;99.90;;;;;;5090786;28;20019;-77
2022/12/11 10:42:17;;;;;;;;;;;4.50;99.90;;;;;;5089294;28;20289;-77
2022/12/11 10:44:53;;;;;;;;;;;4.60;99.90;;;;;;5089831;28;20695;-77
2022/12/11 10:47:19;;;;;;;;;;;4.60;99.90;;;;;;5090503;28;19919;-77
2022/12/11 10:49:54;;;;;;;;;;;4.60;99.90;;;;;;5091347;28;19912;-76
2022/12/11 10:52:25;;;;;;;;;;;4.60;99.90;;;;;;5088854;28;19989;-76
2022/12/11 10:54:59;;;;;;;;;;;4.60;99.90;;;;;;5087553;28;19925;-77
2022/12/11 10:57:26;;;;;;;;;;;4.60;99.90;;;;;;5088134;28;19912;-76
2022/12/11 10:59:52;;;;;;;;;;;4.50;99.90;;;;;;5086349;28;19928;-76
2022/12/11 11:02:23;;;;;;;;;;;4.60;99.90;;;;;;5086558;28;19926;-76
2022/12/11 11:04:49;;;;;;;;;;;4.70;99.90;;;;;;5087314;28;19953;-76
2022/12/11 11:07:18;;;;;;;;;;;4.70;99.90;;;;;;5087038;28;19912;-77
2022/12/11 11:09:44;;;;;;;;;;;4.70;99.90;;;;;;5086627;28;19916;-75
2022/12/11 11:12:20;;;;;;;;;;;4.70;99.90;;;;;;5087540;28;19918;-76
2022/12/11 11:14:46;;;;;;;;;;;4.80;99.90;;;;;;5087140;28;19965;-76
2022/12/11 11:17:16;;;;;;;;;;;4.80;99.90;;;;;;5084948;28;19908;-76
2022/12/11 11:19:44;;;;;;;;;;;4.90;99.90;;;;;;5086782;28;19908;-76
2022/12/11 11:22:20;;;;;;;;;;;4.90;99.90;;;;;;5087560;28;19919;-75
2022/12/11 11:24:45;;;;;;;;;;;4.80;99.90;;;;;;5090400;28;19920;-75
2022/12/11 11:27:31;;;;;;;;;;;4.90;99.90;;;;;;5090673;28;19938;-76
2022/12/11 11:29:59;;;;;;;;;;;4.70;99.90;;;;;;5078300;28;19988;-76
2022/12/11 11:32:38;;;;;;;;;;;4.70;99.90;;;;;;5090973;28;20337;-75
2022/12/11 11:35:15;;;;;;;;;;;4.60;99.90;;;;;;5090645;28;19913;-76
2022/12/11 11:37:43;;;;;;;;;;;4.60;99.90;;;;;;5090539;28;20018;-76
2022/12/11 11:40:15;;;;;;;;;;;4.60;99.90;;;;;;5090383;28;19912;-76
2022/12/11 11:43:03;;;;;;;;;;;4.60;99.90;;;;;;5090136;28;19912;-76
2022/12/11 11:45:49;;;;;;;;;;;4.60;99.90;;;;;;5091382;28;20171;-76
2022/12/11 11:48:20;;;;;;;;;;;4.60;99.90;;;;;;5069328;28;19962;-77
2022/12/11 11:50:49;;;;;;;;;;;4.50;99.90;;;;;;5089966;28;20369;-76
2022/12/11 11:53:32;;;;;;;;;;;4.50;99.90;;;;;;5088916;28;19918;-76
2022/12/11 11:56:02;;;;;;;;;;;4.40;99.90;;;;;;5090208;28;19957;-77
2022/12/11 11:58:50;;;;;;;;;;;4.40;99.90;;;;;;5090517;28;19908;-77
2022/12/11 12:01:19;;;;;;;;;;;4.40;99.90;;;;;;5082329;28;20447;-77
2022/12/11 12:03:46;;;;;;;;;;;4.30;99.90;;;;;;5091143;28;19955;-77
2022/12/11 12:06:19;;;;;;;;;;;4.20;99.90;;;;;;5089579;28;19920;-77
2022/12/11 12:08:48;;;;;;;;;;;4.20;99.90;;;;;;5090769;28;19916;-76
2022/12/11 12:11:13;;;;;;;;;;;4.10;99.90;;;;;;5092517;28;20439;-76
2022/12/11 12:13:42;;;;;;;;;;;4.10;99.90;;;;;;5090692;28;19918;-77
2022/12/11 12:16:15;;;;;;;;;;;4.10;99.90;;;;;;5090645;28;19912;-76
2022/12/11 12:19:10;;;;;;;;;;;4.10;99.90;;;;;;5090285;28;19912;-76
2022/12/11 12:21:37;;;;;;;;;;;4.10;99.90;;;;;;5054764;28;19912;-76
2022/12/11 12:24:21;;;;;;;;;;;4.10;99.90;;;;;;5091350;28;19920;-76
2022/12/11 12:27:00;;;;;;;;;;;4.10;99.90;;;;;;5091818;28;20438;-77
2022/12/11 12:29:44;;;;;;;;;;;4.10;99.90;;;;;;5090464;28;20688;-76
2022/12/11 12:32:13;;;;;;;;;;;4.10;99.90;;;;;;5094536;28;19915;-76
2022/12/11 12:34:38;;;;;;;;;;;4.00;99.90;;;;;;5092894;28;19916;-76
2022/12/11 12:37:10;;;;;;;;;;;4.00;99.90;;;;;;5091822;28;19931;-77
2022/12/11 12:39:54;;;;;;;;;;;4.00;99.90;;;;;;5090482;28;19919;-76
2022/12/11 12:42:20;;;;;;;;;;;4.00;99.90;;;;;;5092085;28;20007;-77
2022/12/11 12:45:00;;;;;;;;;;;4.00;99.90;;;;;;5091385;28;20475;-77
2022/12/11 12:47:29;;;;;;;;;;;4.00;99.90;;;;;;5090431;28;19958;-77
2022/12/11 12:49:57;;;;;;;;;;;4.00;99.90;;;;;;5091528;28;19947;-77
2022/12/11 12:52:30;;;;;;;;;;;4.00;99.90;;;;;;5093013;28;20257;-77
2022/12/11 12:55:12;;;;;;;;;;;4.10;99.90;;;;;;5093093;28;19912;-77
2022/12/11 12:57:42;;;;;;;;;;;4.00;99.90;;;;;;5094480;28;19927;-77
2022/12/11 13:00:09;;;;;;;;;;;4.00;99.90;;;;;;5092739;28;19945;-77
2022/12/11 13:02:47;;;;;;;;;;;4.00;99.90;;;;;;5092484;28;19946;-77
2022/12/11 13:05:24;;;;;;;;;;;3.90;99.90;;;;;;5093121;28;19920;-77
2022/12/11 13:07:52;;;;;;;;;;;3.90;99.90;;;;;;5093420;28;19912;-76
2022/12/11 13:10:37;;;;;;;;;;;3.90;99.90;;;;;;5093131;28;19947;-77
2022/12/11 13:13:04;;;;;;;;;;;3.90;99.90;;;;;;5093365;28;19912;-76
2022/12/11 13:15:29;;;;;;;;;;;3.80;99.90;;;;;;5094666;28;20158;-78
2022/12/11 13:17:55;;;;;;;;;;;3.80;99.90;;;;;;5095793;28;19919;-77
2022/12/11 13:20:22;;;;;;;;;;;3.80;99.90;;;;;;5093091;28;20316;-81
2022/12/11 13:22:48;;;;;;;;;;;3.80;99.90;;;;;;5090566;28;19908;-76
2022/12/11 13:25:20;;;;;;;;;;;3.70;99.90;;;;;;5091018;28;19928;-75
2022/12/11 13:27:45;;;;;;;;;;;3.70;99.90;;;;;;5090031;28;19947;-77
2022/12/11 13:30:14;;;;;;;;;;;3.70;99.90;;;;;;5089628;28;20355;-76
2022/12/11 13:32:40;;;;;;;;;;;3.70;99.90;;;;;;5091040;28;20352;-77
2022/12/11 13:35:06;;;;;;;;;;;3.80;99.90;;;;;;5089485;28;19908;-76
2022/12/11 13:37:32;;;;;;;;;;;3.80;99.90;;;;;;5090033;28;19962;-75
2022/12/11 13:39:59;;;;;;;;;;;3.80;99.90;;;;;;5091560;28;19934;-76
2022/12/11 13:42:45;;;;;;;;;;;3.70;99.90;;;;;;5090414;28;19919;-77
2022/12/11 13:45:17;;;;;;;;;;;3.80;99.90;;;;;;5056877;28;19927;-76
2022/12/11 13:47:44;;;;;;;;;;;3.70;99.90;;;;;;5087757;28;19908;-76
2022/12/11 13:50:13;;;;;;;;;;;3.70;99.90;;;;;;5090442;28;19919;-76
2022/12/11 13:52:39;;;;;;;;;;;3.70;99.90;;;;;;5088664;28;19912;-77
2022/12/11 13:55:15;;;;;;;;;;;3.70;99.90;;;;;;5089199;28;19908;-77
2022/12/11 13:57:44;;;;;;;;;;;3.70;99.90;;;;;;5089911;28;20399;-76
2022/12/11 14:00:21;;;;;;;;;;;3.60;99.90;;;;;;5090449;28;19963;-77
2022/12/11 14:02:46;;;;;;;;;;;3.50;99.90;;;;;;5088950;28;19908;-77
2022/12/11 14:05:12;;;;;;;;;;;3.50;99.90;;;;;;5088527;28;19927;-76
2022/12/11 14:07:41;;;;;;;;;;;3.50;99.90;;;;;;5090950;28;20396;-77
2022/12/11 14:10:16;;;;;;;;;;;3.40;99.90;;;;;;5089354;28;20490;-77
2022/12/11 14:12:46;;;;;;;;;;;3.40;99.90;;;;;;5090963;28;19908;-77
2022/12/11 14:15:13;;;;;;;;;;;3.30;99.90;;;;;;5088600;28;19935;-77
2022/12/11 14:17:40;;;;;;;;;;;3.30;99.90;;;;;;5089741;28;19965;-77
2022/12/11 14:20:13;;;;;;;;;;;3.30;99.90;;;;;;5089257;28;19918;-78
2022/12/11 14:22:39;;;;;;;;;;;3.30;99.90;;;;;;5089796;28;20396;-76
2022/12/11 14:25:17;;;;;;;;;;;3.30;99.90;;;;;;5090462;28;19920;-77
2022/12/11 14:27:51;;;;;;;;;;;3.30;99.90;;;;;;5090795;28;19914;-76
2022/12/11 14:30:21;;;;;;;;;;;3.20;99.90;;;;;;5089607;28;19908;-77
2022/12/11 14:32:47;;;;;;;;;;;3.20;99.90;;;;;;5091194;28;20007;-78
2022/12/11 14:35:20;;;;;;;;;;;3.20;99.90;;;;;;5088852;28;19919;-77
2022/12/11 14:37:45;;;;;;;;;;;3.20;99.90;;;;;;5089006;28;19912;-77
2022/12/11 14:40:15;;;;;;;;;;;3.20;99.90;;;;;;5090472;28;20442;-77
2022/12/11 14:42:46;;;;;;;;;;;3.10;99.90;;;;;;5090638;28;20383;-78
2022/12/11 14:45:47;;;;;;;;;;;3.20;99.90;;;;;;5092285;28;20051;-77
2022/12/11 14:48:19;;;;;;;;;;;3.10;99.90;;;;;;5031041;28;19908;-76
2022/12/11 14:50:48;;;;;;;;;;;3.10;99.90;;;;;;5082682;28;19965;-77